Time;durP1;ratioP1;P1;durP2;ratioP2;P2;SDS_P1;SDS_P2;PMS_P1;PMS_P2;Temp;Humidity;BMP_temperature;BMP_pressure;BME280_temperature;BME280_humidity;BME280_pressure;Samples;Min_cycle;Max_cycle;Signal;HPM_P1;HPM_P2
2021/11/20 00:01:59;;;;;;;;;;;11.70;99.90;;;;;;5030464;28;19931;-81
2021/11/20 00:04:27;;;;;;;;;;;11.80;99.90;;;;;;5033036;28;19917;-82
2021/11/20 00:06:55;;;;;;;;;;;11.80;99.90;;;;;;5063538;28;21220;-78
2021/11/20 00:09:22;;;;;;;;;;;11.80;99.90;;;;;;5046379;28;19912;-81
2021/11/20 00:11:51;;;;;;;;;;;11.80;99.90;;;;;;5046060;28;19921;-82
2021/11/20 00:14:18;;;;;;;;;;;11.80;99.90;;;;;;5012131;28;19924;-80
2021/11/20 00:16:45;;;;;;;;;;;11.80;99.90;;;;;;5029660;28;20378;-79
2021/11/20 00:19:12;;;;;;;;;;;11.80;99.90;;;;;;5049976;28;19912;-87
2021/11/20 00:21:42;;;;;;;;;;;11.80;99.90;;;;;;5032689;28;20263;-80
2021/11/20 00:24:32;;;;;;;;;;;11.80;99.90;;;;;;5017439;28;20312;-80
2021/11/20 00:27:01;;;;;;;;;;;11.80;99.90;;;;;;5032272;28;19910;-81
2021/11/20 00:29:38;;;;;;;;;;;11.80;99.90;;;;;;5017091;28;20003;-81
2021/11/20 00:32:16;;;;;;;;;;;11.80;99.90;;;;;;5030649;28;19916;-81
2021/11/20 00:34:44;;;;;;;;;;;11.80;99.90;;;;;;5018605;28;19916;-78
2021/11/20 00:37:13;;;;;;;;;;;11.70;99.90;;;;;;5016065;28;19909;-82
2021/11/20 00:39:40;;;;;;;;;;;11.70;99.90;;;;;;5016975;28;19908;-80
2021/11/20 00:42:08;;;;;;;;;;;11.70;99.90;;;;;;5015715;28;19913;-81
2021/11/20 00:44:34;;;;;;;;;;;11.70;99.90;;;;;;5051545;28;20371;-81
2021/11/20 00:47:01;;;;;;;;;;;11.70;99.90;;;;;;5033566;28;19908;-79
2021/11/20 00:49:28;;;;;;;;;;;11.70;99.90;;;;;;5031385;28;19920;-81
2021/11/20 00:51:58;;;;;;;;;;;11.70;99.90;;;;;;5016301;28;20275;-81
2021/11/20 00:54:28;;;;;;;;;;;11.70;99.90;;;;;;5050045;28;19908;-80
2021/11/20 00:57:00;;;;;;;;;;;11.70;99.90;;;;;;5017467;28;20544;-81
2021/11/20 00:59:26;;;;;;;;;;;11.70;99.90;;;;;;5050313;28;19908;-82
2021/11/20 01:01:59;;;;;;;;;;;11.70;99.90;;;;;;5047485;28;20027;-82
2021/11/20 01:04:26;;;;;;;;;;;11.70;99.90;;;;;;5049734;28;19916;-80
2021/11/20 01:07:10;;;;;;;;;;;11.70;99.90;;;;;;5032576;28;19991;-83
2021/11/20 01:09:42;;;;;;;;;;;11.70;99.90;;;;;;4998118;28;20775;-81
2021/11/20 01:12:43;;;;;;;;;;;11.70;99.90;;;;;;5016603;28;19924;-83
2021/11/20 01:18:25;;;;;;;;;;;11.60;99.90;;;;;;5028925;28;19909;-81
2021/11/20 01:21:00;;;;;;;;;;;11.60;99.90;;;;;;5034286;28;19924;-81
2021/11/20 01:23:27;;;;;;;;;;;11.60;99.90;;;;;;5033503;28;19909;-81
2021/11/20 01:26:01;;;;;;;;;;;11.60;99.90;;;;;;5017986;28;19909;-82
2021/11/20 01:28:34;;;;;;;;;;;11.60;99.90;;;;;;5026165;28;19916;-81
2021/11/20 01:31:12;;;;;;;;;;;11.60;99.90;;;;;;5016550;28;19915;-81
2021/11/20 01:33:45;;;;;;;;;;;11.60;99.90;;;;;;5049872;28;19909;-81
2021/11/20 01:36:14;;;;;;;;;;;11.60;99.90;;;;;;5028535;28;19916;-82
2021/11/20 01:38:43;;;;;;;;;;;11.50;99.90;;;;;;5028284;28;19909;-84
2021/11/20 01:41:17;;;;;;;;;;;11.50;99.90;;;;;;5015811;28;19913;-84
2021/11/20 01:44:15;;;;;;;;;;;11.60;99.90;;;;;;5018047;28;20337;-85
2021/11/20 01:46:44;;;;;;;;;;;11.50;99.90;;;;;;5036979;28;19920;-84
2021/11/20 01:49:10;;;;;;;;;;;11.50;99.90;;;;;;5049625;28;19932;-84
2021/11/20 01:51:54;;;;;;;;;;;11.50;99.90;;;;;;5034218;28;19936;-82
2021/11/20 01:54:39;;;;;;;;;;;11.50;99.90;;;;;;5053212;28;19908;-83
2021/11/20 01:57:32;;;;;;;;;;;11.50;99.90;;;;;;5034159;28;19908;-84
2021/11/20 02:00:11;;;;;;;;;;;11.50;99.90;;;;;;5020044;28;19912;-82
2021/11/20 02:02:49;;;;;;;;;;;11.50;99.90;;;;;;5021311;28;19921;-83
2021/11/20 02:06:05;;;;;;;;;;;11.40;99.90;;;;;;5028520;28;20295;-83
2021/11/20 02:09:00;;;;;;;;;;;11.40;99.90;;;;;;5016337;28;19916;-84
2021/11/20 02:11:42;;;;;;;;;;;11.50;99.90;;;;;;5033125;28;19916;-82
2021/11/20 02:14:13;;;;;;;;;;;11.40;99.90;;;;;;5034471;28;19917;-82
2021/11/20 02:16:47;;;;;;;;;;;11.40;99.90;;;;;;5049817;28;19916;-83
2021/11/20 02:19:15;;;;;;;;;;;11.40;99.90;;;;;;5023865;28;19916;-83
2021/11/20 02:21:57;;;;;;;;;;;11.40;99.90;;;;;;5001950;28;19924;-83
2021/11/20 02:24:25;;;;;;;;;;;11.40;99.90;;;;;;5017303;28;19920;-82
2021/11/20 02:27:12;;;;;;;;;;;11.40;99.90;;;;;;4980298;28;20390;-82
2021/11/20 02:29:46;;;;;;;;;;;11.40;99.90;;;;;;5030092;28;19913;-81
2021/11/20 02:32:23;;;;;;;;;;;11.40;99.90;;;;;;5033083;28;19924;-82
2021/11/20 02:34:57;;;;;;;;;;;11.40;99.90;;;;;;5053122;28;19909;-83
2021/11/20 02:37:30;;;;;;;;;;;11.40;99.90;;;;;;5013225;28;20383;-83
2021/11/20 02:39:56;;;;;;;;;;;11.40;99.90;;;;;;5033737;28;20560;-82
2021/11/20 02:42:24;;;;;;;;;;;11.40;99.90;;;;;;5003724;28;19924;-83
2021/11/20 02:45:15;;;;;;;;;;;11.40;99.90;;;;;;5022494;28;20430;-83
2021/11/20 02:47:41;;;;;;;;;;;11.40;99.90;;;;;;5035850;28;19938;-82
2021/11/20 02:50:08;;;;;;;;;;;11.40;99.90;;;;;;5018546;28;19912;-84
2021/11/20 02:52:34;;;;;;;;;;;11.40;99.90;;;;;;5019258;28;19916;-82
2021/11/20 02:55:01;;;;;;;;;;;11.30;99.90;;;;;;5008942;28;19924;-82
2021/11/20 02:57:29;;;;;;;;;;;11.40;99.90;;;;;;5002968;28;19916;-83
2021/11/20 03:00:03;;;;;;;;;;;11.40;99.90;;;;;;5019933;28;19913;-83
2021/11/20 03:02:37;;;;;;;;;;;11.40;99.90;;;;;;5004131;28;19924;-82
2021/11/20 03:05:05;;;;;;;;;;;11.30;99.90;;;;;;5019503;28;19915;-83
2021/11/20 03:07:31;;;;;;;;;;;11.30;99.90;;;;;;5018197;28;19920;-83
2021/11/20 03:09:57;;;;;;;;;;;11.30;99.90;;;;;;5019173;28;19917;-82
2021/11/20 03:12:25;;;;;;;;;;;11.30;99.90;;;;;;5002053;28;19920;-82
2021/11/20 03:14:58;;;;;;;;;;;11.30;99.90;;;;;;5002832;28;19921;-83
2021/11/20 03:17:32;;;;;;;;;;;11.30;99.90;;;;;;5018966;28;19920;-83
2021/11/20 03:19:58;;;;;;;;;;;11.30;99.90;;;;;;5019456;28;20253;-83
2021/11/20 03:22:33;;;;;;;;;;;11.30;99.90;;;;;;5019379;28;19947;-82
2021/11/20 03:24:59;;;;;;;;;;;11.30;99.90;;;;;;5010069;28;19908;-83
2021/11/20 03:27:26;;;;;;;;;;;11.30;99.90;;;;;;5018860;28;19912;-83
2021/11/20 03:29:52;;;;;;;;;;;11.30;99.90;;;;;;5002930;28;19992;-83
2021/11/20 03:32:22;;;;;;;;;;;11.30;99.90;;;;;;5018148;28;20395;-84
2021/11/20 03:34:48;;;;;;;;;;;11.30;99.90;;;;;;5008373;28;19915;-83
2021/11/20 03:37:22;;;;;;;;;;;11.30;99.90;;;;;;5017589;28;19912;-83
2021/11/20 03:39:55;;;;;;;;;;;11.30;99.90;;;;;;5033477;28;20276;-83
2021/11/20 03:42:22;;;;;;;;;;;11.30;99.90;;;;;;5022664;28;19916;-83
2021/11/20 03:44:49;;;;;;;;;;;11.20;99.90;;;;;;5006497;28;19924;-82
2021/11/20 03:47:21;;;;;;;;;;;11.20;99.90;;;;;;5035119;28;19916;-83
2021/11/20 03:49:48;;;;;;;;;;;11.20;99.90;;;;;;4993741;28;19913;-82
2021/11/20 03:52:17;;;;;;;;;;;11.20;99.90;;;;;;5034234;28;20564;-82
2021/11/20 03:54:44;;;;;;;;;;;11.20;99.90;;;;;;5019009;28;20355;-83
2021/11/20 03:57:14;;;;;;;;;;;11.20;99.90;;;;;;5018182;28;19913;-82
2021/11/20 03:59:40;;;;;;;;;;;11.20;99.90;;;;;;5018573;28;19909;-82
2021/11/20 04:02:07;;;;;;;;;;;11.20;99.90;;;;;;5016379;28;19924;-82
2021/11/20 04:04:34;;;;;;;;;;;11.20;99.90;;;;;;5018477;28;19916;-82
2021/11/20 04:07:02;;;;;;;;;;;11.20;99.90;;;;;;5017057;28;19908;-82
2021/11/20 04:09:30;;;;;;;;;;;11.20;99.90;;;;;;5004233;28;19917;-82
2021/11/20 04:12:02;;;;;;;;;;;11.20;99.90;;;;;;5011396;28;19923;-82
2021/11/20 04:14:29;;;;;;;;;;;11.20;99.90;;;;;;5018166;28;19920;-82
2021/11/20 04:16:56;;;;;;;;;;;11.20;99.90;;;;;;5001901;28;19986;-82
2021/11/20 04:19:23;;;;;;;;;;;11.20;99.90;;;;;;5015453;28;19917;-84
2021/11/20 04:21:52;;;;;;;;;;;11.10;99.90;;;;;;5050189;28;20376;-82
2021/11/20 04:24:20;;;;;;;;;;;11.20;99.90;;;;;;5035035;28;19921;-82
2021/11/20 04:27:07;;;;;;;;;;;11.20;99.90;;;;;;5020320;28;19920;-82
2021/11/20 04:30:05;;;;;;;;;;;11.20;99.90;;;;;;5011219;28;19916;-82
2021/11/20 04:32:32;;;;;;;;;;;11.20;99.90;;;;;;5033871;28;19912;-82
2021/11/20 04:35:06;;;;;;;;;;;11.10;99.90;;;;;;5045509;28;20483;-82
2021/11/20 04:38:18;;;;;;;;;;;11.20;99.90;;;;;;5010313;28;19924;-82
2021/11/20 04:40:45;;;;;;;;;;;11.20;99.90;;;;;;5004108;28;19913;-82
2021/11/20 04:43:12;;;;;;;;;;;11.10;99.90;;;;;;4992107;28;19944;-82
2021/11/20 04:45:40;;;;;;;;;;;11.10;99.90;;;;;;5010191;28;19909;-82
2021/11/20 04:48:09;;;;;;;;;;;11.10;99.90;;;;;;4990128;28;20013;-82
2021/11/20 04:50:53;;;;;;;;;;;11.10;99.90;;;;;;4988618;28;19914;-82
2021/11/20 04:53:20;;;;;;;;;;;11.10;99.90;;;;;;5013033;28;19909;-82
2021/11/20 04:55:47;;;;;;;;;;;11.10;99.90;;;;;;4981119;28;19916;-82
2021/11/20 04:58:15;;;;;;;;;;;11.10;99.90;;;;;;4987317;28;19909;-83
2021/11/20 05:00:47;;;;;;;;;;;11.10;99.90;;;;;;5005553;28;20017;-83
2021/11/20 05:03:18;;;;;;;;;;;11.10;99.90;;;;;;5031572;28;20359;-82
2021/11/20 05:05:46;;;;;;;;;;;11.10;99.90;;;;;;5021004;28;19909;-82
2021/11/20 05:08:16;;;;;;;;;;;11.10;99.90;;;;;;5033628;28;19912;-82
2021/11/20 05:10:44;;;;;;;;;;;11.10;99.90;;;;;;5017072;28;19912;-82
2021/11/20 05:13:11;;;;;;;;;;;11.10;99.90;;;;;;5017276;28;19920;-82
2021/11/20 05:15:41;;;;;;;;;;;11.10;99.90;;;;;;5005780;28;20337;-82
2021/11/20 05:18:13;;;;;;;;;;;11.10;99.90;;;;;;5031877;28;20280;-82
2021/11/20 05:20:47;;;;;;;;;;;11.10;99.90;;;;;;5001283;28;19963;-82
2021/11/20 05:23:17;;;;;;;;;;;11.10;99.90;;;;;;5050516;28;19928;-83
2021/11/20 05:25:45;;;;;;;;;;;11.10;99.90;;;;;;5002194;28;19912;-83
2021/11/20 05:28:15;;;;;;;;;;;11.10;99.90;;;;;;5015492;28;19916;-82
2021/11/20 05:30:46;;;;;;;;;;;11.10;99.90;;;;;;5027294;28;19915;-83
2021/11/20 05:33:32;;;;;;;;;;;11.10;99.90;;;;;;5047920;28;19967;-82
2021/11/20 05:36:02;;;;;;;;;;;11.10;99.90;;;;;;5017904;28;19909;-82
2021/11/20 05:38:29;;;;;;;;;;;11.10;99.90;;;;;;5016959;28;19913;-82
2021/11/20 05:40:56;;;;;;;;;;;11.10;99.90;;;;;;5016769;28;19909;-82
2021/11/20 05:43:32;;;;;;;;;;;11.10;99.90;;;;;;5009510;28;20295;-83
2021/11/20 05:46:10;;;;;;;;;;;11.10;99.90;;;;;;5016171;28;19908;-82
2021/11/20 05:48:36;;;;;;;;;;;11.10;99.90;;;;;;5004928;28;19909;-82
2021/11/20 05:51:02;;;;;;;;;;;11.10;99.90;;;;;;5016943;28;20029;-82
2021/11/20 05:53:31;;;;;;;;;;;11.10;99.90;;;;;;5033585;28;19909;-82
2021/11/20 05:55:58;;;;;;;;;;;11.10;99.90;;;;;;5000989;28;19917;-82
2021/11/20 05:58:33;;;;;;;;;;;11.10;99.90;;;;;;5033184;28;19919;-82
2021/11/20 06:01:01;;;;;;;;;;;11.10;99.90;;;;;;5033429;28;20294;-82
2021/11/20 06:03:28;;;;;;;;;;;11.10;99.90;;;;;;5031011;28;19913;-82
2021/11/20 06:05:55;;;;;;;;;;;11.00;99.90;;;;;;5033007;28;19920;-82
2021/11/20 06:08:22;;;;;;;;;;;11.10;99.90;;;;;;5016309;28;20607;-82
2021/11/20 06:10:52;;;;;;;;;;;11.10;99.90;;;;;;5000903;28;19917;-82
2021/11/20 06:13:20;;;;;;;;;;;11.10;99.90;;;;;;5033161;28;19913;-82
2021/11/20 06:15:55;;;;;;;;;;;11.10;99.90;;;;;;5019416;28;19916;-82
2021/11/20 06:18:22;;;;;;;;;;;11.10;99.90;;;;;;5015729;28;19916;-82
2021/11/20 06:20:50;;;;;;;;;;;11.10;99.90;;;;;;5023188;28;19908;-82
2021/11/20 06:23:17;;;;;;;;;;;11.00;99.90;;;;;;5016247;28;19917;-82
2021/11/20 06:25:44;;;;;;;;;;;11.00;99.90;;;;;;4989152;28;19913;-82
2021/11/20 06:28:11;;;;;;;;;;;11.00;99.90;;;;;;4999847;28;20283;-82
2021/11/20 06:30:39;;;;;;;;;;;11.10;99.90;;;;;;5017621;28;19917;-83
2021/11/20 06:33:06;;;;;;;;;;;11.00;99.90;;;;;;5015694;28;19917;-82
2021/11/20 06:35:52;;;;;;;;;;;11.00;99.90;;;;;;5034618;28;19923;-83
2021/11/20 06:38:25;;;;;;;;;;;11.00;99.90;;;;;;5005570;28;19920;-82
2021/11/20 06:40:53;;;;;;;;;;;11.00;99.90;;;;;;5019533;28;20357;-82
2021/11/20 06:43:23;;;;;;;;;;;11.00;99.90;;;;;;5019663;28;20277;-82
2021/11/20 06:45:53;;;;;;;;;;;11.00;99.90;;;;;;5018376;28;19920;-82
2021/11/20 06:48:20;;;;;;;;;;;11.00;99.90;;;;;;5019384;28;19921;-83
2021/11/20 06:50:59;;;;;;;;;;;11.00;99.90;;;;;;5036094;28;19920;-83
2021/11/20 06:53:42;;;;;;;;;;;11.00;99.90;;;;;;5034984;28;19908;-83
2021/11/20 06:56:25;;;;;;;;;;;11.00;99.90;;;;;;5005148;28;19924;-83
2021/11/20 07:02:05;;;;;;;;;;;11.00;99.90;;;;;;5046755;28;19916;-84
2021/11/20 07:04:34;;;;;;;;;;;11.00;99.90;;;;;;5036406;28;19909;-84
2021/11/20 07:07:05;;;;;;;;;;;11.00;99.90;;;;;;5019763;28;19912;-84
2021/11/20 07:09:33;;;;;;;;;;;11.00;99.90;;;;;;5066368;28;19908;-82
2021/11/20 07:11:59;;;;;;;;;;;10.90;99.90;;;;;;5019171;28;19920;-83
2021/11/20 07:14:26;;;;;;;;;;;10.90;99.90;;;;;;5036050;28;20586;-83
2021/11/20 07:16:52;;;;;;;;;;;10.90;99.90;;;;;;5019444;28;20303;-83
2021/11/20 07:19:19;;;;;;;;;;;10.90;99.90;;;;;;5036342;28;19920;-83
2021/11/20 07:22:04;;;;;;;;;;;10.90;99.90;;;;;;5031519;28;20411;-84
2021/11/20 07:24:47;;;;;;;;;;;11.00;99.90;;;;;;5007061;28;19920;-84
2021/11/20 07:27:14;;;;;;;;;;;11.00;99.90;;;;;;5035233;28;19924;-83
2021/11/20 07:29:40;;;;;;;;;;;11.00;99.90;;;;;;5019212;28;19912;-83
2021/11/20 07:32:11;;;;;;;;;;;11.00;99.90;;;;;;5002250;28;19913;-85
2021/11/20 07:34:42;;;;;;;;;;;11.00;99.90;;;;;;5035896;28;19913;-82
2021/11/20 07:37:08;;;;;;;;;;;11.00;99.90;;;;;;5032983;28;19917;-81
2021/11/20 07:39:35;;;;;;;;;;;10.90;99.90;;;;;;5043712;28;19912;-84
2021/11/20 07:42:05;;;;;;;;;;;11.00;99.90;;;;;;5031815;28;19909;-82
2021/11/20 07:44:37;;;;;;;;;;;10.90;99.90;;;;;;5018521;28;20307;-83
2021/11/20 07:47:03;;;;;;;;;;;11.00;99.90;;;;;;5018194;28;19928;-82
2021/11/20 07:49:36;;;;;;;;;;;11.00;99.90;;;;;;5018751;28;20645;-82
2021/11/20 07:52:04;;;;;;;;;;;11.00;99.90;;;;;;5017370;28;20509;-83
2021/11/20 07:54:31;;;;;;;;;;;11.00;99.90;;;;;;5001984;28;20395;-83
2021/11/20 07:57:20;;;;;;;;;;;11.00;99.90;;;;;;5037125;28;19931;-83
2021/11/20 07:59:51;;;;;;;;;;;11.00;99.90;;;;;;5034640;28;19912;-83
2021/11/20 08:02:37;;;;;;;;;;;11.00;99.90;;;;;;5020110;28;19924;-83
2021/11/20 08:05:07;;;;;;;;;;;11.00;99.90;;;;;;5046035;28;19913;-82
2021/11/20 08:07:41;;;;;;;;;;;11.00;99.90;;;;;;5033140;28;20386;-82
2021/11/20 08:10:16;;;;;;;;;;;11.00;99.90;;;;;;5064129;28;19999;-82
2021/11/20 08:12:45;;;;;;;;;;;11.00;99.90;;;;;;5000826;28;20456;-82
2021/11/20 08:15:30;;;;;;;;;;;11.00;99.90;;;;;;5033461;28;20283;-83
2021/11/20 08:18:13;;;;;;;;;;;11.00;99.90;;;;;;5032485;28;19920;-83
2021/11/20 08:20:53;;;;;;;;;;;11.00;99.90;;;;;;5016375;28;20287;-82
2021/11/20 08:23:29;;;;;;;;;;;11.00;99.90;;;;;;5017819;28;19924;-84
2021/11/20 08:25:56;;;;;;;;;;;11.00;99.90;;;;;;5016712;28;19909;-82
2021/11/20 08:28:24;;;;;;;;;;;11.00;99.90;;;;;;5002705;28;19913;-82
2021/11/20 08:30:52;;;;;;;;;;;11.00;99.90;;;;;;5016581;28;19913;-82
2021/11/20 08:33:21;;;;;;;;;;;11.00;99.90;;;;;;5001019;28;19913;-83
2021/11/20 08:36:11;;;;;;;;;;;11.10;99.90;;;;;;5020226;28;19917;-83
2021/11/20 08:38:56;;;;;;;;;;;11.10;99.90;;;;;;5019256;28;19916;-83
2021/11/20 08:41:24;;;;;;;;;;;11.10;99.90;;;;;;5000546;28;20379;-84
2021/11/20 08:43:51;;;;;;;;;;;11.10;99.90;;;;;;5013430;28;19936;-83
2021/11/20 08:46:24;;;;;;;;;;;11.00;99.90;;;;;;5030630;28;20364;-82
2021/11/20 08:48:51;;;;;;;;;;;11.10;99.90;;;;;;5003431;28;19920;-83
2021/11/20 08:51:19;;;;;;;;;;;11.10;99.90;;;;;;5033931;28;19971;-82
2021/11/20 08:53:49;;;;;;;;;;;11.10;99.90;;;;;;5029024;28;20291;-82
2021/11/20 08:56:16;;;;;;;;;;;11.10;99.90;;;;;;5032103;28;19936;-83
2021/11/20 08:58:49;;;;;;;;;;;11.10;99.90;;;;;;5032634;28;19909;-83
2021/11/20 09:01:41;;;;;;;;;;;11.10;99.90;;;;;;5018029;28;20373;-82
2021/11/20 09:04:31;;;;;;;;;;;11.10;99.90;;;;;;5017485;28;20393;-83
2021/11/20 09:07:07;;;;;;;;;;;11.20;99.90;;;;;;5046734;28;19918;-83
2021/11/20 09:09:48;;;;;;;;;;;11.10;99.90;;;;;;5020709;28;20364;-83
2021/11/20 09:12:33;;;;;;;;;;;11.20;99.90;;;;;;5032861;28;19939;-83
2021/11/20 09:15:03;;;;;;;;;;;11.20;99.90;;;;;;5017270;28;19913;-83
2021/11/20 09:17:43;;;;;;;;;;;11.10;99.90;;;;;;5033568;28;19908;-83
2021/11/20 09:20:13;;;;;;;;;;;11.20;99.90;;;;;;5015278;28;19909;-82
2021/11/20 09:22:39;;;;;;;;;;;11.20;99.90;;;;;;5016877;28;19916;-83
2021/11/20 09:25:16;;;;;;;;;;;11.20;99.90;;;;;;5016435;28;19920;-83
2021/11/20 09:27:48;;;;;;;;;;;11.30;99.90;;;;;;5016116;28;19912;-83
2021/11/20 09:30:20;;;;;;;;;;;11.30;99.90;;;;;;5028731;28;19913;-83
2021/11/20 09:32:47;;;;;;;;;;;11.30;99.90;;;;;;5017355;28;20244;-83
2021/11/20 09:35:21;;;;;;;;;;;11.30;99.90;;;;;;5014236;28;20020;-84
2021/11/20 09:38:04;;;;;;;;;;;11.40;99.90;;;;;;5031840;28;19916;-83
2021/11/20 09:40:32;;;;;;;;;;;11.40;99.90;;;;;;5022157;28;19913;-83
2021/11/20 09:43:05;;;;;;;;;;;11.40;99.90;;;;;;5016839;28;20394;-83
2021/11/20 09:45:35;;;;;;;;;;;11.40;99.90;;;;;;5005869;28;19913;-83
2021/11/20 09:48:17;;;;;;;;;;;11.40;99.90;;;;;;5015759;28;19905;-83
2021/11/20 09:50:44;;;;;;;;;;;11.50;99.90;;;;;;5028477;28;19916;-82
2021/11/20 09:53:13;;;;;;;;;;;11.50;99.90;;;;;;5029225;28;19909;-83
2021/11/20 09:55:43;;;;;;;;;;;11.50;99.90;;;;;;5016577;28;19917;-78
2021/11/20 09:58:11;;;;;;;;;;;11.50;99.90;;;;;;5049700;28;19908;-76
2021/11/20 10:01:00;;;;;;;;;;;11.50;99.90;;;;;;5049372;28;19909;-80
2021/11/20 10:03:32;;;;;;;;;;;11.60;99.90;;;;;;5048801;28;19912;-79
2021/11/20 10:06:13;;;;;;;;;;;11.60;99.90;;;;;;5017390;28;20291;-79
2021/11/20 10:08:44;;;;;;;;;;;11.60;99.90;;;;;;5052838;28;19933;-78
2021/11/20 10:11:26;;;;;;;;;;;11.60;99.90;;;;;;5052107;28;19917;-79
2021/11/20 10:13:55;;;;;;;;;;;11.60;99.90;;;;;;5034287;28;19928;-79
2021/11/20 10:16:27;;;;;;;;;;;11.60;99.90;;;;;;5034697;28;19909;-79
2021/11/20 10:18:56;;;;;;;;;;;11.60;99.90;;;;;;5034545;28;19912;-80
2021/11/20 10:21:31;;;;;;;;;;;11.70;99.90;;;;;;5037126;28;19905;-79
2021/11/20 10:24:00;;;;;;;;;;;11.70;99.90;;;;;;5023944;28;20300;-79
2021/11/20 10:26:45;;;;;;;;;;;11.70;99.90;;;;;;5041579;28;19935;-78
2021/11/20 10:29:23;;;;;;;;;;;11.70;99.90;;;;;;5053068;28;19919;-79
2021/11/20 10:32:04;;;;;;;;;;;11.70;99.90;;;;;;5036580;28;19928;-79
2021/11/20 10:34:43;;;;;;;;;;;11.80;99.90;;;;;;5024758;28;19912;-79
2021/11/20 10:37:15;;;;;;;;;;;11.80;99.90;;;;;;5023563;28;19912;-79
2021/11/20 10:39:53;;;;;;;;;;;11.80;99.90;;;;;;5022205;28;19917;-79
2021/11/20 10:42:21;;;;;;;;;;;11.80;99.90;;;;;;5038461;28;19917;-79
2021/11/20 10:44:51;;;;;;;;;;;11.80;99.90;;;;;;5036374;28;19909;-80
2021/11/20 10:47:17;;;;;;;;;;;11.80;99.90;;;;;;5003168;28;19919;-78
2021/11/20 10:49:49;;;;;;;;;;;11.80;99.90;;;;;;5034452;28;19924;-79
2021/11/20 10:52:40;;;;;;;;;;;11.80;99.90;;;;;;5033070;28;19917;-81
2021/11/20 10:55:28;;;;;;;;;;;11.80;99.90;;;;;;5034226;28;20007;-85
2021/11/20 10:58:14;;;;;;;;;;;11.90;99.90;;;;;;5054161;28;20352;-82
2021/11/20 11:00:43;;;;;;;;;;;11.90;99.90;;;;;;5049428;28;20331;-79
2021/11/20 11:03:28;;;;;;;;;;;11.90;99.90;;;;;;5022255;28;19951;-81
2021/11/20 11:06:14;;;;;;;;;;;11.90;99.90;;;;;;5039588;28;19912;-80
2021/11/20 11:08:45;;;;;;;;;;;11.80;99.90;;;;;;5033554;28;19920;-80
2021/11/20 11:11:23;;;;;;;;;;;11.80;99.90;;;;;;5031458;28;19909;-81
2021/11/20 11:14:11;;;;;;;;;;;11.80;99.90;;;;;;5033223;28;19908;-80
2021/11/20 11:16:40;;;;;;;;;;;11.80;99.90;;;;;;5048042;28;19912;-80
2021/11/20 11:19:48;;;;;;;;;;;11.80;99.90;;;;;;5017949;28;19979;-79
2021/11/20 11:22:22;;;;;;;;;;;11.80;99.90;;;;;;4972819;28;19925;-77
2021/11/20 11:25:08;;;;;;;;;;;11.80;99.90;;;;;;4991570;28;19918;-80
2021/11/20 11:27:49;;;;;;;;;;;11.80;99.90;;;;;;5047932;28;19931;-81
2021/11/20 11:30:28;;;;;;;;;;;11.80;99.90;;;;;;5018405;28;19909;-82
2021/11/20 11:32:57;;;;;;;;;;;11.80;99.90;;;;;;5036173;28;19917;-80
2021/11/20 11:35:34;;;;;;;;;;;11.90;99.90;;;;;;5051971;28;19913;-78
2021/11/20 11:38:13;;;;;;;;;;;11.80;99.90;;;;;;5035343;28;19913;-79
2021/11/20 11:40:43;;;;;;;;;;;11.80;99.90;;;;;;5065624;28;19909;-79
2021/11/20 11:43:12;;;;;;;;;;;11.80;99.90;;;;;;5018049;28;19913;-80
2021/11/20 11:45:47;;;;;;;;;;;11.90;99.90;;;;;;5050477;28;19920;-79
2021/11/20 11:48:32;;;;;;;;;;;11.90;99.90;;;;;;5066682;28;19908;-79
2021/11/20 11:51:08;;;;;;;;;;;11.90;99.90;;;;;;5032249;28;20295;-80
2021/11/20 11:53:53;;;;;;;;;;;11.90;99.90;;;;;;5033908;28;19913;-80
2021/11/20 11:56:30;;;;;;;;;;;11.90;99.90;;;;;;5031705;28;19912;-79
2021/11/20 11:58:58;;;;;;;;;;;11.90;99.90;;;;;;5033331;28;19916;-81
2021/11/20 12:01:38;;;;;;;;;;;11.90;99.90;;;;;;5016198;28;19908;-80
2021/11/20 12:04:17;;;;;;;;;;;11.90;99.90;;;;;;5033286;28;19913;-81
2021/11/20 12:07:18;;;;;;;;;;;11.90;99.90;;;;;;5010597;28;19912;-82
2021/11/20 12:09:49;;;;;;;;;;;11.90;99.90;;;;;;5018567;28;20287;-81
2021/11/20 12:12:29;;;;;;;;;;;11.90;99.90;;;;;;5050299;28;19934;-80
2021/11/20 12:15:10;;;;;;;;;;;11.90;99.90;;;;;;5017626;28;19908;-81
2021/11/20 12:17:55;;;;;;;;;;;11.90;99.90;;;;;;5019722;28;19924;-80
2021/11/20 12:20:39;;;;;;;;;;;11.90;99.90;;;;;;5016815;28;19916;-79
2021/11/20 12:23:13;;;;;;;;;;;11.90;99.90;;;;;;5033068;28;19920;-83
2021/11/20 12:25:53;;;;;;;;;;;11.90;99.90;;;;;;5051358;28;19909;-78
2021/11/20 12:28:28;;;;;;;;;;;11.80;99.90;;;;;;5066982;28;19920;-78
2021/11/20 12:30:54;;;;;;;;;;;11.80;99.90;;;;;;5058739;28;19916;-78
2021/11/20 12:33:24;;;;;;;;;;;11.80;99.90;;;;;;5032481;28;19936;-76
2021/11/20 12:35:50;;;;;;;;;;;11.80;99.90;;;;;;5054656;28;19916;-79
2021/11/20 12:38:31;;;;;;;;;;;11.80;99.90;;;;;;5004753;28;20237;-79
2021/11/20 12:41:13;;;;;;;;;;;11.80;99.90;;;;;;5050976;28;20276;-79
2021/11/20 12:43:58;;;;;;;;;;;11.90;99.90;;;;;;5001028;28;19931;-79
2021/11/20 12:46:43;;;;;;;;;;;11.90;99.90;;;;;;5051309;28;19915;-83
2021/11/20 12:49:13;;;;;;;;;;;11.90;99.90;;;;;;5031886;28;19916;-83
2021/11/20 12:51:46;;;;;;;;;;;11.90;99.90;;;;;;5047817;28;19920;-79
2021/11/20 12:54:22;;;;;;;;;;;11.90;99.90;;;;;;5004506;28;19905;-77
2021/11/20 12:56:49;;;;;;;;;;;11.90;99.90;;;;;;5016119;28;20581;-79
2021/11/20 12:59:15;;;;;;;;;;;11.90;99.90;;;;;;5033478;28;19936;-80
2021/11/20 13:01:47;;;;;;;;;;;11.90;99.90;;;;;;5025607;28;19916;-82
2021/11/20 13:04:19;;;;;;;;;;;11.90;99.90;;;;;;5011887;28;19928;-82
2021/11/20 13:07:32;;;;;;;;;;;11.90;99.90;;;;;;5016373;28;19913;-82
2021/11/20 13:10:25;;;;;;;;;;;11.90;99.90;;;;;;4954689;28;19910;-82
2021/11/20 13:13:30;;;;;;;;;;;11.90;99.90;;;;;;4933034;29;19925;-80
2021/11/20 13:16:05;;;;;;;;;;;11.90;99.90;;;;;;4946843;28;19921;-77
2021/11/20 13:18:37;;;;;;;;;;;11.90;99.90;;;;;;4951164;28;19911;-83
2021/11/20 13:21:24;;;;;;;;;;;11.90;99.90;;;;;;5001872;28;19920;-77
2021/11/20 13:24:00;;;;;;;;;;;11.80;99.90;;;;;;4989678;28;20408;-81
2021/11/20 13:26:33;;;;;;;;;;;11.90;99.90;;;;;;4990031;28;19909;-83
2021/11/20 13:29:06;;;;;;;;;;;11.80;99.90;;;;;;5000287;28;19914;-84
2021/11/20 13:31:38;;;;;;;;;;;11.90;99.90;;;;;;4988436;28;20265;-78
2021/11/20 13:34:06;;;;;;;;;;;11.90;99.90;;;;;;5000573;28;19913;-83
2021/11/20 13:36:41;;;;;;;;;;;11.90;99.90;;;;;;5029764;28;20257;-83
2021/11/20 13:39:17;;;;;;;;;;;11.90;99.90;;;;;;5013239;28;19916;-82
2021/11/20 13:42:01;;;;;;;;;;;11.80;99.90;;;;;;5027536;28;19909;-83
2021/11/20 13:44:31;;;;;;;;;;;11.80;99.90;;;;;;5007420;28;19920;-83
2021/11/20 13:46:57;;;;;;;;;;;11.80;99.90;;;;;;5066930;28;19971;-84
2021/11/20 13:49:54;;;;;;;;;;;11.80;99.90;;;;;;5026759;28;19920;-81
2021/11/20 13:52:20;;;;;;;;;;;11.80;99.90;;;;;;5033081;28;19909;-81
2021/11/20 13:55:01;;;;;;;;;;;11.80;99.90;;;;;;5033838;28;20340;-81
2021/11/20 13:57:33;;;;;;;;;;;11.70;99.90;;;;;;5033286;28;20237;-81
2021/11/20 14:00:11;;;;;;;;;;;11.70;99.90;;;;;;5015785;28;19917;-82
2021/11/20 14:02:47;;;;;;;;;;;11.70;99.90;;;;;;5032975;28;20296;-82
2021/11/20 14:05:33;;;;;;;;;;;11.70;99.90;;;;;;5030996;28;20373;-81
2021/11/20 14:08:09;;;;;;;;;;;11.70;99.90;;;;;;5016424;28;19916;-78
2021/11/20 14:10:38;;;;;;;;;;;11.70;99.90;;;;;;5033882;28;19917;-84
2021/11/20 14:13:27;;;;;;;;;;;11.70;99.90;;;;;;5024421;28;19920;-85
2021/11/20 14:15:56;;;;;;;;;;;11.70;99.90;;;;;;5033351;28;20498;-81
2021/11/20 14:18:32;;;;;;;;;;;11.70;99.90;;;;;;5017567;28;19920;-85
2021/11/20 14:21:04;;;;;;;;;;;11.70;99.90;;;;;;5017833;28;19912;-85
2021/11/20 14:23:37;;;;;;;;;;;11.70;99.90;;;;;;5017483;28;19921;-84
2021/11/20 14:26:07;;;;;;;;;;;11.60;99.90;;;;;;5033604;28;19928;-83
2021/11/20 14:28:38;;;;;;;;;;;11.60;99.90;;;;;;5016485;28;19912;-82
2021/11/20 14:31:08;;;;;;;;;;;11.60;99.90;;;;;;5015814;28;19917;-79
2021/11/20 14:33:35;;;;;;;;;;;11.50;99.90;;;;;;5032690;28;19909;-77
2021/11/20 14:36:03;;;;;;;;;;;11.50;99.90;;;;;;5033622;28;19913;-82
2021/11/20 14:38:31;;;;;;;;;;;11.50;99.90;;;;;;5030614;28;20323;-82
2021/11/20 14:40:58;;;;;;;;;;;11.50;99.90;;;;;;5011389;28;20369;-84
2021/11/20 14:43:26;;;;;;;;;;;11.50;99.90;;;;;;5012368;28;19921;-82
2021/11/20 14:45:53;;;;;;;;;;;11.50;99.90;;;;;;5012281;28;19913;-82
2021/11/20 14:48:30;;;;;;;;;;;11.50;99.90;;;;;;4996577;28;19928;-82
2021/11/20 14:50:58;;;;;;;;;;;11.50;99.90;;;;;;4997706;28;20353;-84
2021/11/20 14:53:29;;;;;;;;;;;11.40;99.90;;;;;;5032472;28;19909;-83
2021/11/20 14:55:58;;;;;;;;;;;11.50;99.90;;;;;;5014875;28;19920;-83
2021/11/20 14:58:26;;;;;;;;;;;11.40;99.90;;;;;;5031042;28;19932;-82
2021/11/20 15:00:57;;;;;;;;;;;11.40;99.90;;;;;;5018203;28;19917;-82